createdAt,value
2022-08-21T00:00:15.314Z,100.00
2022-08-21T00:03:17.950Z,100.00
2022-08-21T00:06:21.070Z,100.00
2022-08-21T00:09:25.000Z,100.00
2022-08-21T00:12:28.191Z,100.00
2022-08-21T00:15:33.270Z,100.00
2022-08-21T00:18:35.872Z,100.00
2022-08-21T00:21:38.552Z,100.00
2022-08-21T00:24:42.470Z,100.00
2022-08-21T00:27:45.478Z,100.00
2022-08-21T00:30:48.327Z,100.00
2022-08-21T00:33:50.940Z,100.00
2022-08-21T00:36:53.431Z,100.00
2022-08-21T00:39:57.532Z,100.00
2022-08-21T00:43:00.391Z,100.00
2022-08-21T00:46:05.220Z,100.00
2022-08-21T00:49:08.555Z,100.00
2022-08-21T00:52:14.885Z,100.00
2022-08-21T00:55:19.535Z,100.00
2022-08-21T00:58:22.620Z,100.00
2022-08-21T01:01:25.331Z,100.00
2022-08-21T01:04:28.533Z,100.00
2022-08-21T01:07:31.241Z,100.00
2022-08-21T01:10:36.148Z,100.00
2022-08-21T01:13:47.420Z,100.00
2022-08-21T01:16:53.173Z,100.00
2022-08-21T01:19:59.467Z,100.00
2022-08-21T01:23:04.899Z,100.00
2022-08-21T01:26:08.432Z,100.00
2022-08-21T01:29:16.590Z,100.00
2022-08-21T01:32:21.140Z,100.00
2022-08-21T01:35:24.312Z,100.00
2022-08-21T01:38:28.291Z,100.00
2022-08-21T01:41:31.513Z,100.00
2022-08-21T01:44:34.477Z,100.00
2022-08-21T01:47:37.698Z,100.00
2022-08-21T01:50:40.259Z,100.00
2022-08-21T01:53:44.082Z,100.00
2022-08-21T01:56:49.292Z,100.00
2022-08-21T01:59:51.852Z,100.00
2022-08-21T02:02:54.988Z,100.00
2022-08-21T02:05:57.803Z,100.00
2022-08-21T02:09:01.620Z,100.00
2022-08-21T02:12:04.712Z,100.00
2022-08-21T02:15:08.925Z,100.00
2022-08-21T02:18:11.515Z,100.00
2022-08-21T02:21:14.081Z,100.00
2022-08-21T02:24:17.894Z,100.00
2022-08-21T02:27:26.162Z,100.00
2022-08-21T02:30:32.924Z,100.00
2022-08-21T02:33:35.571Z,100.00
2022-08-21T02:36:38.200Z,100.00
2022-08-21T02:39:42.109Z,100.00
2022-08-21T02:42:44.856Z,100.00
2022-08-21T02:45:49.152Z,100.00
2022-08-21T02:48:51.631Z,100.00
2022-08-21T02:51:54.252Z,100.00
2022-08-21T02:54:58.096Z,100.00
2022-08-21T02:58:01.891Z,100.00
2022-08-21T03:01:05.280Z,100.00
2022-08-21T03:04:07.764Z,100.00
2022-08-21T03:07:11.265Z,100.00
2022-08-21T03:10:15.923Z,100.00
2022-08-21T03:13:20.234Z,100.00
2022-08-21T03:16:22.842Z,100.00
2022-08-21T03:19:25.332Z,100.00
2022-08-21T03:22:28.537Z,100.00
2022-08-21T03:25:39.918Z,100.00
2022-08-21T03:28:43.474Z,100.00
2022-08-21T03:31:46.104Z,100.00
2022-08-21T03:34:49.095Z,100.00
2022-08-21T03:37:51.661Z,100.00
2022-08-21T03:40:55.559Z,100.00
2022-08-21T03:43:58.054Z,100.00
2022-08-21T03:47:00.573Z,100.00
2022-08-21T03:50:03.182Z,100.00
2022-08-21T03:53:05.727Z,100.00
2022-08-21T03:56:09.725Z,100.00
2022-08-21T03:59:12.289Z,100.00
2022-08-21T04:02:18.427Z,100.00
2022-08-21T04:05:28.885Z,100.00
2022-08-21T04:08:31.563Z,100.00
2022-08-21T04:11:35.423Z,100.00
2022-08-21T04:14:38.152Z,100.00
2022-08-21T04:17:40.755Z,100.00
2022-08-21T04:20:48.222Z,100.00
2022-08-21T04:23:52.926Z,100.00
2022-08-21T04:26:56.773Z,100.00
2022-08-21T04:29:59.251Z,100.00
2022-08-21T04:33:01.846Z,100.00
2022-08-21T04:36:09.882Z,100.00
2022-08-21T04:39:12.567Z,100.00
2022-08-21T04:42:16.388Z,100.00
2022-08-21T04:45:23.023Z,100.00
2022-08-21T04:48:26.045Z,100.00
2022-08-21T04:51:33.763Z,100.00
2022-08-21T04:54:36.484Z,100.00
2022-08-21T04:57:49.104Z,100.00
2022-08-21T05:00:55.830Z,100.00
2022-08-21T05:04:00.979Z,100.00
2022-08-21T05:07:07.903Z,100.00
2022-08-21T05:10:12.492Z,100.00
2022-08-21T05:13:18.425Z,100.00
2022-08-21T05:16:36.687Z,100.00
2022-08-21T05:19:40.889Z,100.00
2022-08-21T05:22:43.819Z,100.00
2022-08-21T05:25:46.310Z,100.00
2022-08-21T05:28:50.113Z,100.00
2022-08-21T05:31:52.714Z,100.00
2022-08-21T05:34:55.804Z,100.00
2022-08-21T05:37:58.888Z,100.00
2022-08-21T05:41:01.502Z,100.00
2022-08-21T05:44:10.282Z,100.00
2022-08-21T05:47:13.664Z,100.00
2022-08-21T05:50:16.178Z,100.00
2022-08-21T05:53:20.606Z,100.00
2022-08-21T05:56:23.155Z,100.00
2022-08-21T05:59:28.577Z,100.00
2022-08-21T06:02:31.989Z,100.00
2022-08-21T06:05:37.080Z,100.00
2022-08-21T06:08:40.099Z,100.00
2022-08-21T06:11:42.655Z,100.00
2022-08-21T06:14:46.531Z,100.00
2022-08-21T06:17:49.027Z,100.00
2022-08-21T06:20:51.545Z,100.00
2022-08-21T06:23:54.043Z,100.00
2022-08-21T06:26:56.829Z,100.00
2022-08-21T06:30:00.668Z,100.00
2022-08-21T06:33:03.893Z,100.00
2022-08-21T06:36:06.792Z,100.00
2022-08-21T06:39:16.613Z,100.00
2022-08-21T06:42:28.812Z,100.00
2022-08-21T06:45:32.671Z,100.00
2022-08-21T06:48:35.220Z,100.00
2022-08-21T06:51:37.727Z,100.00
2022-08-21T06:54:41.590Z,100.00
2022-08-21T06:57:44.091Z,100.00
2022-08-21T07:01:00.613Z,100.00
2022-08-21T07:04:04.000Z,100.00
2022-08-21T07:07:06.519Z,100.00
2022-08-21T07:10:09.904Z,100.00
2022-08-21T07:13:24.671Z,100.00
2022-08-21T07:16:28.495Z,100.00
2022-08-21T07:19:31.113Z,100.00
2022-08-21T07:22:33.931Z,100.00
2022-08-21T07:25:36.828Z,100.00
2022-08-21T07:28:39.486Z,100.00
2022-08-21T07:31:43.405Z,100.00
2022-08-21T07:34:46.028Z,100.00
2022-08-21T07:37:49.210Z,100.00
2022-08-21T07:40:54.410Z,100.00
2022-08-21T07:43:58.171Z,99.95
2022-08-21T07:47:02.242Z,100.00
2022-08-21T07:50:05.439Z,100.00
2022-08-21T07:53:08.371Z,100.00
2022-08-21T07:56:12.044Z,99.38
2022-08-21T07:59:14.644Z,98.26
2022-08-21T08:02:25.668Z,97.77
2022-08-21T08:05:31.933Z,95.77
2022-08-21T08:08:35.028Z,93.84
2022-08-21T08:11:41.044Z,91.63
2022-08-21T08:14:43.819Z,92.31
2022-08-21T08:17:47.838Z,89.19
2022-08-21T08:20:50.428Z,91.09
2022-08-21T08:23:53.168Z,92.78
2022-08-21T08:26:57.938Z,88.06
2022-08-21T08:30:00.935Z,86.22
2022-08-21T08:33:04.754Z,82.79
2022-08-21T08:36:14.087Z,81.10
2022-08-21T08:39:26.481Z,86.55
2022-08-21T08:42:34.888Z,80.75
2022-08-21T08:45:41.547Z,78.30
2022-08-21T08:48:53.133Z,79.59
2022-08-21T08:52:02.215Z,73.60
2022-08-21T08:55:08.058Z,76.43
2022-08-21T08:58:13.321Z,73.39
2022-08-21T09:01:18.909Z,73.44
2022-08-21T09:04:26.848Z,73.81
2022-08-21T09:07:39.103Z,71.63
2022-08-21T09:10:52.926Z,71.04
2022-08-21T09:14:06.327Z,69.51
2022-08-21T09:17:21.513Z,71.22
2022-08-21T09:20:36.061Z,69.65
2022-08-21T09:23:50.064Z,66.73
2022-08-21T09:27:03.938Z,65.67
2022-08-21T09:30:08.615Z,64.47
2022-08-21T09:33:14.643Z,63.70
2022-08-21T09:36:27.918Z,63.84
2022-08-21T09:39:33.069Z,63.19
2022-08-21T09:42:42.924Z,63.72
2022-08-21T09:45:47.048Z,62.26
2022-08-21T09:48:52.053Z,63.85
2022-08-21T09:51:57.019Z,62.91
2022-08-21T09:54:59.556Z,63.46
2022-08-21T09:58:02.888Z,63.46
2022-08-21T10:01:07.826Z,61.81
2022-08-21T10:04:11.726Z,60.62
2022-08-21T10:07:16.455Z,61.58
2022-08-21T10:10:22.922Z,61.97
2022-08-21T10:13:38.515Z,61.04
2022-08-21T10:16:51.376Z,60.99
2022-08-21T10:20:02.133Z,60.76
2022-08-21T10:23:18.026Z,61.19
2022-08-21T10:26:30.946Z,60.43
2022-08-21T10:29:46.951Z,59.38
2022-08-21T10:33:01.110Z,58.33
2022-08-21T10:36:18.282Z,61.25
2022-08-21T10:39:35.603Z,58.06
2022-08-21T10:42:54.095Z,57.17
2022-08-21T10:46:09.018Z,57.81
2022-08-21T10:49:22.718Z,56.92
2022-08-21T10:52:44.205Z,60.17
2022-08-21T10:55:56.707Z,58.98
2022-08-21T10:59:11.599Z,57.47
2022-08-21T11:02:19.375Z,60.61
2022-08-21T11:05:29.859Z,59.06
2022-08-21T11:08:37.476Z,57.72
2022-08-21T11:11:55.227Z,56.78
2022-08-21T11:15:29.225Z,57.41
2022-08-21T11:18:36.290Z,56.21
2022-08-21T11:21:44.519Z,56.46
2022-08-21T11:24:52.635Z,55.00
2022-08-21T11:28:02.544Z,56.22
2022-08-21T11:31:17.191Z,53.79
2022-08-21T11:34:34.345Z,56.40
2022-08-21T11:37:51.062Z,53.44
2022-08-21T11:41:05.423Z,53.90
2022-08-21T11:44:17.345Z,55.77
2022-08-21T11:47:29.633Z,56.57
2022-08-21T11:50:35.998Z,58.83
2022-08-21T11:53:46.462Z,57.40
2022-08-21T11:56:56.093Z,57.42
2022-08-21T12:00:08.710Z,56.88
2022-08-21T12:03:15.912Z,56.01
2022-08-21T12:06:31.998Z,55.94
2022-08-21T12:09:37.630Z,57.23
2022-08-21T12:12:42.670Z,56.36
2022-08-21T12:15:46.501Z,56.59
2022-08-21T12:18:48.981Z,54.01
2022-08-21T12:21:54.115Z,53.08
2022-08-21T12:25:07.993Z,52.30
2022-08-21T12:28:13.621Z,51.66
2022-08-21T12:31:23.598Z,47.67
2022-08-21T12:34:34.151Z,48.84
2022-08-21T12:37:41.505Z,46.58
2022-08-21T12:40:49.257Z,43.89
2022-08-21T12:43:59.055Z,42.52
2022-08-21T12:47:06.081Z,46.42
2022-08-21T12:50:13.214Z,46.28
2022-08-21T12:53:27.817Z,45.62
2022-08-21T12:56:32.671Z,45.88
2022-08-21T12:59:40.188Z,44.41
2022-08-21T13:02:50.192Z,47.96
2022-08-21T13:05:54.663Z,48.00
2022-08-21T13:09:01.157Z,48.19
2022-08-21T13:12:04.050Z,46.88
2022-08-21T13:15:09.390Z,47.53
2022-08-21T13:18:23.506Z,48.04
2022-08-21T13:21:31.775Z,43.91
2022-08-21T13:24:42.712Z,43.69
2022-08-21T13:27:57.975Z,44.20
2022-08-21T13:31:02.552Z,44.56
2022-08-21T13:34:09.558Z,45.58
2022-08-21T13:37:16.386Z,45.23
2022-08-21T13:40:26.145Z,41.57
2022-08-21T13:43:32.445Z,42.59
2022-08-21T13:46:37.620Z,43.32
2022-08-21T13:49:44.590Z,41.34
2022-08-21T13:52:56.769Z,39.54
2022-08-21T13:56:01.179Z,39.86
2022-08-21T13:59:04.971Z,39.58
2022-08-21T14:02:15.015Z,39.94
2022-08-21T14:05:23.630Z,38.91
2022-08-21T14:08:31.564Z,42.59
2022-08-21T14:11:36.611Z,41.06
2022-08-21T14:14:41.107Z,40.90
2022-08-21T14:17:44.058Z,40.04
2022-08-21T14:20:47.957Z,38.75
2022-08-21T14:24:01.628Z,36.97
2022-08-21T14:27:07.683Z,36.50
2022-08-21T14:30:14.238Z,36.50
2022-08-21T14:33:22.466Z,36.74
2022-08-21T14:36:26.267Z,36.50
2022-08-21T14:39:28.743Z,37.58
2022-08-21T14:42:31.497Z,37.69
2022-08-21T14:45:34.035Z,39.44
2022-08-21T14:48:36.766Z,38.85
2022-08-21T14:51:53.818Z,39.60
2022-08-21T14:54:57.127Z,38.29
2022-08-21T14:57:59.773Z,39.62
2022-08-21T15:01:04.778Z,38.37
2022-08-21T15:04:07.336Z,39.92
2022-08-21T15:07:11.169Z,40.56
2022-08-21T15:10:14.338Z,39.04
2022-08-21T15:13:17.017Z,40.11
2022-08-21T15:16:19.496Z,38.51
2022-08-21T15:19:22.002Z,39.67
2022-08-21T15:22:28.061Z,41.90
2022-08-21T15:25:33.147Z,41.38
2022-08-21T15:28:37.733Z,44.19
2022-08-21T15:31:55.124Z,43.93
2022-08-21T15:34:58.973Z,44.75
2022-08-21T15:38:03.100Z,44.25
2022-08-21T15:41:06.727Z,44.53
2022-08-21T15:44:12.611Z,43.04
2022-08-21T15:47:18.305Z,44.66
2022-08-21T15:50:21.792Z,44.34
2022-08-21T15:53:25.599Z,44.12
2022-08-21T15:56:35.535Z,44.71
2022-08-21T15:59:42.775Z,43.06
2022-08-21T16:02:48.174Z,44.38
2022-08-21T16:05:53.243Z,44.37
2022-08-21T16:08:57.038Z,45.42
2022-08-21T16:12:00.591Z,44.72
2022-08-21T16:15:04.938Z,46.62
2022-08-21T16:18:07.777Z,45.03
2022-08-21T16:21:10.262Z,46.17
2022-08-21T16:24:14.054Z,46.39
2022-08-21T16:27:17.590Z,46.39
2022-08-21T16:30:21.862Z,47.53
2022-08-21T16:33:31.294Z,48.18
2022-08-21T16:36:35.816Z,50.46
2022-08-21T16:39:39.886Z,50.11
2022-08-21T16:42:43.782Z,50.87
2022-08-21T16:45:48.871Z,52.30
2022-08-21T16:48:55.159Z,51.75
2022-08-21T16:51:57.683Z,52.01
2022-08-21T16:55:02.538Z,53.19
2022-08-21T16:58:10.431Z,54.19
2022-08-21T17:01:16.036Z,54.85
2022-08-21T17:04:18.629Z,54.91
2022-08-21T17:07:21.127Z,56.23
2022-08-21T17:10:24.915Z,56.65
2022-08-21T17:13:27.880Z,57.06
2022-08-21T17:16:30.909Z,57.64
2022-08-21T17:19:34.503Z,57.88
2022-08-21T17:22:37.027Z,58.04
2022-08-21T17:25:44.463Z,57.84
2022-08-21T17:28:50.909Z,56.53
2022-08-21T17:31:55.718Z,55.66
2022-08-21T17:34:58.376Z,55.13
2022-08-21T17:38:00.943Z,54.65
2022-08-21T17:41:06.280Z,54.41
2022-08-21T17:44:15.344Z,54.69
2022-08-21T17:47:20.703Z,55.40
2022-08-21T17:50:23.370Z,55.89
2022-08-21T17:53:25.984Z,56.77
2022-08-21T17:56:32.619Z,58.37
2022-08-21T17:59:35.666Z,59.24
2022-08-21T18:02:38.855Z,61.26
2022-08-21T18:05:41.844Z,62.83
2022-08-21T18:08:44.307Z,64.40
2022-08-21T18:11:48.120Z,66.44
2022-08-21T18:14:51.251Z,67.95
2022-08-21T18:17:54.183Z,68.70
2022-08-21T18:20:58.031Z,69.83
2022-08-21T18:24:00.529Z,70.73
2022-08-21T18:27:06.424Z,71.38
2022-08-21T18:30:11.182Z,73.21
2022-08-21T18:33:15.100Z,76.39
2022-08-21T18:36:17.555Z,79.04
2022-08-21T18:39:35.841Z,81.33
2022-08-21T18:42:51.502Z,82.51
2022-08-21T18:45:58.543Z,81.36
2022-08-21T18:49:01.110Z,82.84
2022-08-21T18:52:05.618Z,82.04
2022-08-21T18:55:13.427Z,82.90
2022-08-21T18:58:19.034Z,83.52
2022-08-21T19:01:21.641Z,84.60
2022-08-21T19:04:43.761Z,85.99
2022-08-21T19:07:47.320Z,86.56
2022-08-21T19:10:52.136Z,89.35
2022-08-21T19:13:56.819Z,91.75
2022-08-21T19:16:59.641Z,93.32
2022-08-21T19:20:07.094Z,95.44
2022-08-21T19:23:11.417Z,95.75
2022-08-21T19:26:13.949Z,96.17
2022-08-21T19:29:20.290Z,96.58
2022-08-21T19:32:39.583Z,96.88
2022-08-21T19:35:45.610Z,96.78
2022-08-21T19:38:53.563Z,94.88
2022-08-21T19:41:58.515Z,94.29
2022-08-21T19:45:02.875Z,95.63
2022-08-21T19:48:06.376Z,97.07
2022-08-21T19:51:08.972Z,98.45
2022-08-21T19:54:17.344Z,99.38
2022-08-21T19:57:20.106Z,99.12
2022-08-21T20:00:24.326Z,100.00
2022-08-21T20:03:27.033Z,100.00
2022-08-21T20:06:29.521Z,100.00
2022-08-21T20:09:32.722Z,100.00
2022-08-21T20:12:37.046Z,100.00
2022-08-21T20:15:41.054Z,100.00
2022-08-21T20:18:44.039Z,100.00
2022-08-21T20:21:46.823Z,100.00
2022-08-21T20:24:49.622Z,100.00
2022-08-21T20:27:52.209Z,100.00
2022-08-21T20:30:56.519Z,100.00
2022-08-21T20:33:59.746Z,100.00
2022-08-21T20:37:02.893Z,100.00
2022-08-21T20:40:11.571Z,100.00
2022-08-21T20:43:35.376Z,100.00
2022-08-21T20:46:39.290Z,100.00
2022-08-21T20:49:46.166Z,100.00
2022-08-21T20:52:51.791Z,100.00
2022-08-21T20:55:56.521Z,100.00
2022-08-21T20:59:17.133Z,100.00
2022-08-21T21:02:32.885Z,100.00
2022-08-21T21:05:41.619Z,100.00
2022-08-21T21:08:48.977Z,100.00
2022-08-21T21:11:58.200Z,100.00
2022-08-21T21:15:05.923Z,100.00
2022-08-21T21:18:14.312Z,100.00
2022-08-21T21:21:22.698Z,100.00
2022-08-21T21:24:35.382Z,100.00
2022-08-21T21:27:43.574Z,100.00
2022-08-21T21:30:51.964Z,100.00
2022-08-21T21:34:01.813Z,100.00
2022-08-21T21:37:07.959Z,100.00
2022-08-21T21:40:29.336Z,100.00
2022-08-21T21:43:48.742Z,100.00
2022-08-21T21:47:01.765Z,100.00
2022-08-21T21:50:20.762Z,100.00
2022-08-21T21:53:50.612Z,100.00
2022-08-21T21:57:04.214Z,100.00
2022-08-21T22:00:12.452Z,100.00
2022-08-21T22:03:22.835Z,100.00
2022-08-21T22:06:35.763Z,100.00
2022-08-21T22:09:44.880Z,100.00
2022-08-21T22:12:58.633Z,100.00
2022-08-21T22:16:13.041Z,100.00
2022-08-21T22:19:20.848Z,100.00
2022-08-21T22:22:27.660Z,100.00
2022-08-21T22:25:35.313Z,100.00
2022-08-21T22:28:41.671Z,100.00
2022-08-21T22:31:44.677Z,100.00
2022-08-21T22:35:02.005Z,100.00
2022-08-21T22:38:18.324Z,100.00
2022-08-21T22:41:27.821Z,100.00
2022-08-21T22:44:30.711Z,100.00
2022-08-21T22:47:38.276Z,100.00
2022-08-21T22:50:41.496Z,100.00
2022-08-21T22:53:54.667Z,100.00
2022-08-21T22:57:02.646Z,100.00
2022-08-21T23:00:11.095Z,100.00
2022-08-21T23:03:24.692Z,100.00
2022-08-21T23:06:32.305Z,100.00
2022-08-21T23:09:39.219Z,100.00
2022-08-21T23:12:43.861Z,100.00
2022-08-21T23:15:59.967Z,100.00
2022-08-21T23:19:12.920Z,100.00
2022-08-21T23:22:35.922Z,100.00
2022-08-21T23:26:00.141Z,100.00
2022-08-21T23:29:24.784Z,100.00
2022-08-21T23:32:52.402Z,100.00
2022-08-21T23:36:22.440Z,100.00
2022-08-21T23:39:40.203Z,100.00
2022-08-21T23:43:07.335Z,100.00
2022-08-21T23:46:34.268Z,100.00
2022-08-21T23:49:49.328Z,100.00
2022-08-21T23:53:15.838Z,100.00
2022-08-21T23:56:29.540Z,100.00
2022-08-21T23:59:44.331Z,100.00
